Flight Track Log - Related Links

Times and Time Zones

All times are in EDT time to prevent confusion due to time zone crossing. See the NKS676 flight status page for this flight to view local times or setup timezone preferences in your user account.


Time Position Orientation Groundspeed Altitude Reporting Facility
EDT Latitude Longitude Course Direction KTS MPH feet Rate Location/Type
Tue 09:05:12 PM 26.0770 -80.1200 87° East 154 177 1,600  Level FlightAware ADS-B
Tue 09:05:42 PM 26.0780 -80.0930 88° East 190 219 2,500 1,886 Climbing FlightAware ADS-B
Tue 09:06:22 PM 26.0920 -80.0510 70° East 247 284 3,800 2,182 Climbing FlightAware ADS-B
Tue 09:06:37 PM 26.1090 -80.0450 18° North 254 292 4,500 1,950 Climbing FlightAware ADS-B
Tue 09:07:02 PM 26.1360 -80.0560 340° North 259 298 5,100 2,509 Climbing FlightAware ADS-B
Tue 09:07:32 PM 26.1650 -80.0810 322° Northwest 272 313 6,800 3,600 Climbing FlightAware ADS-B
Tue 09:08:02 PM 26.1960 -80.1090 321° Northwest 280 322 8,700 3,491 Climbing FlightAware ADS-B
Tue 09:08:27 PM 26.2230 -80.1320 323° Northwest 292 336 10,000 2,300 Climbing FlightAware ADS-B
Tue 09:09:02 PM 26.2640 -80.1650 324° Northwest 316 364 11,000 1,624 Climbing FlightAware ADS-B
Tue 09:09:52 PM 26.3270 -80.2150 325° Northwest 362 417 12,300 1,895 Climbing FlightAware ADS-B
Tue 09:10:37 PM 26.3880 -80.2640 324° Northwest 383 441 14,000 2,471 Climbing FlightAware ADS-B
Tue 09:11:17 PM 26.4490 -80.3130 324° Northwest 383 441 15,800 2,625 Climbing FlightAware ADS-B
Tue 09:11:57 PM 26.5090 -80.3620 324° Northwest 387 445 17,500 2,259 Climbing FlightAware ADS-B
Tue 09:12:42 PM 26.5790 -80.4070 330° Northwest 394 453 19,000 900 Climbing FlightAware ADS-B
Tue 09:13:37 PM 26.6740 -80.4440 341° North 396 456 19,000  Level FlightAware ADS-B
Tue 09:14:17 PM 26.7450 -80.4720 341° North 396 456 19,000  Level FlightAware ADS-B
Tue 09:15:02 PM 26.8190 -80.5090 336° Northwest 396 456 19,000  Level FlightAware ADS-B
Tue 09:15:42 PM 26.8860 -80.5440 335° Northwest 396 456 19,000  Level FlightAware ADS-B
Tue 09:16:27 PM 26.9620 -80.5850 334° Northwest 395 455 19,000  Level FlightAware ADS-B
Tue 09:17:07 PM 27.0270 -80.6190 335° Northwest 395 455 19,000  Level FlightAware ADS-B
Tue 09:17:47 PM 27.0920 -80.6540 334° Northwest 394 453 19,000  Level FlightAware ADS-B
Tue 09:18:32 PM 27.1680 -80.6950 334° Northwest 396 456 19,000  Level FlightAware ADS-B
Tue 09:19:12 PM 27.2330 -80.7290 335° Northwest 395 455 19,000  Level FlightAware ADS-B
Tue 09:19:52 PM 27.3000 -80.7650 334° Northwest 395 455 19,000  Level FlightAware ADS-B
Tue 09:20:52 PM 27.3950 -80.8160 335° Northwest 374 430 19,000 -300 Level FlightAware ADS-B
Tue 09:21:32 PM 27.4570 -80.8500 334° Northwest 359 413 18,500 -1,680 Descending FlightAware ADS-B
Tue 09:22:07 PM 27.5120 -80.8790 335° Northwest 361 415 16,900 -2,541 Descending FlightAware ADS-B
Tue 09:22:57 PM 27.5860 -80.9190 334° Northwest 360 414 14,900 -2,333 Descending FlightAware ADS-B
Tue 09:23:37 PM 27.6450 -80.9510 334° Northwest 359 413 13,400 -2,118 Descending FlightAware ADS-B
Tue 09:24:22 PM 27.7120 -80.9870 335° Northwest 339 390 11,900 -1,906 Descending FlightAware ADS-B
Tue 09:25:02 PM 27.7660 -81.0160 335° Northwest 326 375 10,700 -1,482 Descending FlightAware ADS-B
Tue 09:25:47 PM 27.8280 -81.0500 334° Northwest 308 354 9,800 -1,029 Descending FlightAware ADS-B
Tue 09:26:12 PM 27.8600 -81.0670 335° Northwest 284 327 9,500 -1,091 Descending FlightAware ADS-B
Tue 09:26:42 PM 27.8970 -81.0870 334° Northwest 273 314 8,800 -1,309 Descending FlightAware ADS-B
Tue 09:27:07 PM 27.9240 -81.1020 334° Northwest 273 314 8,300 -982 Descending FlightAware ADS-B
Tue 09:27:37 PM 27.9600 -81.1190 337° Northwest 269 310 7,900 -545 Descending FlightAware ADS-B
Tue 09:28:02 PM 27.9910 -81.1290 344° North 268 308 7,800 -109 Descending FlightAware ADS-B
Tue 09:28:32 PM 28.0260 -81.1410 343° North 272 313 7,800 -800 Level FlightAware ADS-B
Tue 09:29:02 PM 28.0620 -81.1530 344° North 269 310 7,000 -1,600 Descending FlightAware ADS-B
Tue 09:29:17 PM 28.0810 -81.1590 344° North 269 310 6,600 -1,500 Descending FlightAware ADS-B
Tue 09:29:42 PM 28.1090 -81.1700 341° North 258 297 6,000 -1,964 Descending FlightAware ADS-B
Tue 09:30:12 PM 28.1440 -81.1860 338° Northwest 264 304 4,800 -2,291 Descending FlightAware ADS-B
Tue 09:30:37 PM 28.1710 -81.1990 337° Northwest 259 298 3,900 -1,964 Descending FlightAware ADS-B
Tue 09:31:07 PM 28.2040 -81.2150 337° Northwest 244 281 3,000 -1,100 Descending FlightAware ADS-B
Tue 09:31:37 PM 28.2340 -81.2290 338° Northwest 208 239 2,800 -600 Descending FlightAware ADS-B
Tue 09:32:07 PM 28.2600 -81.2420 336° Northwest 194 223 2,400 -655 Descending FlightAware ADS-B
Tue 09:32:32 PM 28.2790 -81.2510 337° Northwest 163 188 2,200 -655 Descending FlightAware ADS-B
Tue 09:33:02 PM 28.3010 -81.2610 338° Northwest 161 185 1,800 -764 Descending FlightAware ADS-B
Tue 09:33:27 PM 28.3190 -81.2700 336° Northwest 157 181 1,500 -436 Descending FlightAware ADS-B
Tue 09:33:57 PM 28.3400 -81.2790 339° North 159 183 1,400 -436 Descending FlightAware ADS-B
Tue 09:34:22 PM 28.3560 -81.2820 351° North 128 147 1,100 -655 Descending FlightAware ADS-B
Tue 09:34:52 PM 28.3740 -81.2820 360° North 118 136 800 -600 Descending FlightAware ADS-B
Tue 09:35:22 PM 28.3920 -81.2820 360° North 116 133 500 -655 Descending FlightAware ADS-B
Tue 09:35:47 PM 28.4060 -81.2820 360° North 127 146 200 -720 Descending FlightAware ADS-B
Tue 09:36:17 PM 28.4240 -81.2820 360° North 129 148 -400 Descending FlightAware ADS-B

Login

Don't have an account? Register now (free) for customized features, flight alerts, and more!